Time;durP1;ratioP1;P1;durP2;ratioP2;P2;SDS_P1;SDS_P2;PMS_P1;PMS_P2;Temp;Humidity;BMP_temperature;BMP_pressure;BME280_temperature;BME280_humidity;BME280_pressure;Samples;Min_cycle;Max_cycle;Signal;HPM_P1;HPM_P2
2022/04/25 00:02:03;;;;;;;;;10.00;7.67;;;;;22.80;77.05;100501.38;5098862;27;52395;-62
2022/04/25 00:04:28;;;;;;;;;7.00;7.00;;;;;22.80;77.48;100505.84;5093311;27;45464;-61
2022/04/25 00:06:54;;;;;;;;;6.00;6.00;;;;;22.80;77.48;100506.75;5092504;27;46756;-63
2022/04/25 00:09:19;;;;;;;;;9.67;9.67;;;;;22.80;77.34;100505.84;5094835;27;46844;-63
2022/04/25 00:11:44;;;;;;;;;9.00;9.00;;;;;22.78;77.50;100505.06;5093258;27;52830;-63
2022/04/25 00:14:11;;;;;;;;;9.00;8.00;;;;;22.77;77.44;100501.50;5093370;27;45481;-63
2022/04/25 00:16:36;;;;;;;;;11.67;7.67;;;;;22.77;77.24;100506.88;5098229;27;45663;-62
2022/04/25 00:19:02;;;;;;;;;8.00;8.00;;;;;22.77;77.21;100500.63;5093809;27;45641;-62
2022/04/25 00:21:27;;;;;;;;;8.67;7.00;;;;;22.77;77.78;100506.00;5093769;27;45617;-62
2022/04/25 00:23:53;;;;;;;;;10.67;7.00;;;;;22.74;77.60;100502.50;5099797;27;53428;-63
2022/04/25 00:26:18;;;;;;;;;10.00;7.33;;;;;22.76;77.78;100505.13;5092913;27;52061;-63
2022/04/25 00:28:43;;;;;;;;;8.00;7.00;;;;;22.76;77.44;100505.13;5093258;27;45669;-63
2022/04/25 00:31:09;;;;;;;;;8.00;7.00;;;;;22.74;77.57;100502.50;5094380;27;45674;-63
2022/04/25 00:33:35;;;;;;;;;8.33;7.00;;;;;22.74;77.58;100502.50;5096511;27;45540;-62
2022/04/25 00:36:00;;;;;;;;;6.00;6.00;;;;;22.74;77.77;100501.59;5097702;27;45485;-62
2022/04/25 00:38:25;;;;;;;;;6.00;6.00;;;;;22.73;77.70;100500.75;5093323;27;45437;-63
2022/04/25 00:40:51;;;;;;;;;8.33;8.33;;;;;22.72;77.68;100500.81;5094322;27;46605;-63
2022/04/25 00:43:16;;;;;;;;;10.33;8.33;;;;;22.72;77.90;100500.81;5096184;27;45742;-63
2022/04/25 00:45:42;;;;;;;;;7.00;7.00;;;;;22.72;77.79;100508.88;5087547;27;45424;-63
2022/04/25 00:48:07;;;;;;;;;7.00;7.00;;;;;22.72;77.79;100511.59;5093536;27;45403;-63
2022/04/25 00:50:33;;;;;;;;;7.67;7.33;;;;;22.70;77.72;100506.28;5096227;27;46279;-62
2022/04/25 00:52:59;;;;;;;;;6.00;6.00;;;;;22.72;77.86;100498.13;5093154;27;45450;-62
2022/04/25 00:55:24;;;;;;;;;8.00;6.33;;;;;22.72;77.82;100503.50;5093121;27;45583;-62
2022/04/25 00:57:51;;;;;;;;;8.33;6.00;;;;;22.72;77.96;100506.19;5097402;27;45783;-63
2022/04/25 01:00:17;;;;;;;;;8.00;7.00;;;;;22.71;77.87;100505.31;5087912;27;47685;-62
2022/04/25 01:02:42;;;;;;;;;9.33;8.00;;;;;22.71;77.89;100502.63;5098298;27;45499;-62
2022/04/25 01:05:08;;;;;;;;;6.00;6.00;;;;;22.72;77.81;100498.13;5093098;27;45503;-63
2022/04/25 01:07:35;;;;;;;;;5.00;4.00;;;;;22.71;77.82;100510.72;5091999;27;45443;-63
2022/04/25 01:10:01;;;;;;;;;7.00;7.00;;;;;22.72;77.63;100498.13;5101342;27;48492;-62
2022/04/25 01:12:27;;;;;;;;;8.00;6.00;;;;;22.71;77.68;100502.63;5097507;27;45461;-62
2022/04/25 01:15:12;;;;;;;;;6.00;6.00;;;;;22.71;77.72;100499.06;5093009;27;45447;-63
2022/04/25 01:17:38;;;;;;;;;6.33;6.33;;;;;22.71;77.72;100499.94;5095628;27;45425;-63
2022/04/25 01:20:05;;;;;;;;;6.00;6.00;;;;;22.70;77.66;100502.72;5092766;27;46857;-62
2022/04/25 01:22:42;;;;;;;;;8.00;7.00;;;;;22.69;77.75;100507.22;5092753;27;45890;-62
2022/04/25 01:27:52;;;;;;;;;8.00;5.00;;;;;22.71;77.86;100512.53;5089410;27;45469;-62
2022/04/25 01:30:17;;;;;;;;;12.00;8.00;;;;;22.69;77.82;100500.94;5092357;27;46461;-63
2022/04/25 01:32:43;;;;;;;;;6.33;6.33;;;;;22.70;77.59;100500.03;5101565;27;45548;-63
2022/04/25 01:35:09;;;;;;;;;7.00;7.00;;;;;22.70;77.76;100500.03;5094428;27;45505;-63
2022/04/25 01:37:34;;;;;;;;;7.67;7.00;;;;;22.69;77.66;100499.16;5095808;27;46063;-62
2022/04/25 01:39:59;;;;;;;;;5.00;5.00;;;;;22.70;77.77;100503.59;5095270;27;46389;-62
2022/04/25 01:42:25;;;;;;;;;10.67;6.00;;;;;22.69;77.58;100504.53;5095933;27;45503;-63
2022/04/25 01:44:51;;;;;;;;;8.33;7.00;;;;;22.69;77.53;100504.53;5097489;27;45607;-63
2022/04/25 01:47:17;;;;;;;;;5.00;5.00;;;;;22.69;77.60;100511.69;5096069;27;45449;-63
2022/04/25 01:49:43;;;;;;;;;6.00;6.00;;;;;22.68;77.67;100512.66;5095839;27;46396;-63
2022/04/25 01:52:33;;;;;;;;;6.00;6.00;;;;;22.69;77.52;100511.69;5099655;27;45395;-63
2022/04/25 01:55:01;;;;;;;;;5.33;4.67;;;;;22.69;77.59;100518.00;5095582;27;45538;-62
2022/04/25 01:57:26;;;;;;;;;6.00;6.00;;;;;22.67;78.14;100516.28;5096619;27;45516;-63
2022/04/25 01:59:52;;;;;;;;;7.00;5.67;;;;;;;;5095733;27;46402;-63
2022/04/25 02:02:18;;;;;;;;;6.67;6.67;;;;;22.67;77.70;100518.97;5095923;27;45453;-63
2022/04/25 02:04:43;;;;;;;;;6.33;6.33;;;;;22.65;77.77;100524.44;5097951;27;45448;-63
2022/04/25 02:07:10;;;;;;;;;6.00;6.00;;;;;22.64;77.53;100525.41;5099928;27;45461;-62
2022/04/25 02:09:37;;;;;;;;;5.33;5.00;;;;;22.64;77.76;100529.91;5095536;27;47416;-63
2022/04/25 02:12:03;;;;;;;;;6.00;6.00;;;;;22.64;77.58;100535.28;5096538;27;45601;-62
2022/04/25 02:14:29;;;;;;;;;5.00;5.00;;;;;22.62;77.66;100538.03;5095676;27;45508;-63
2022/04/25 02:16:58;;;;;;;;;7.33;6.00;;;;;22.62;78.06;100537.16;5095766;27;45450;-62
2022/04/25 02:19:24;;;;;;;;;10.33;5.33;;;;;22.62;77.99;100539.84;5095537;27;47275;-63
2022/04/25 02:21:50;;;;;;;;;6.67;5.00;;;;;22.62;77.74;100537.16;5095526;27;45434;-63
2022/04/25 02:24:15;;;;;;;;;6.67;5.00;;;;;22.61;78.16;100532.72;5095973;27;46009;-63
2022/04/25 02:26:40;;;;;;;;;5.00;5.00;;;;;22.61;78.04;100540.78;5099220;27;46182;-63
2022/04/25 02:29:06;;;;;;;;;6.00;6.00;;;;;22.60;78.13;100539.03;5077772;27;47346;-63
2022/04/25 02:31:31;;;;;;;;;6.00;6.00;;;;;22.59;78.23;100535.47;5094850;27;45547;-62
2022/04/25 02:33:56;;;;;;;;;6.33;5.00;;;;;22.59;78.25;100535.47;5096448;27;48362;-63
2022/04/25 02:36:23;;;;;;;;;5.33;4.00;;;;;22.59;78.30;100535.47;5098490;27;45520;-62
2022/04/25 02:38:49;;;;;;;;;5.00;5.00;;;;;22.58;78.14;100535.53;5094440;27;47399;-63
2022/04/25 02:41:15;;;;;;;;;7.67;7.00;;;;;22.58;78.26;100536.41;5106163;27;45456;-63
2022/04/25 02:43:43;;;;;;;;;5.00;5.00;;;;;22.57;77.94;100531.97;5099243;27;45679;-63
2022/04/25 02:46:16;;;;;;;;;8.67;7.00;;;;;22.56;78.23;100534.72;5100309;27;45408;-63
2022/04/25 02:48:43;;;;;;;;;6.00;6.00;;;;;22.57;78.28;100541.84;5105640;27;46494;-62
2022/04/25 02:51:09;;;;;;;;;6.00;6.00;;;;;22.56;78.34;100535.59;5094847;27;45782;-62
2022/04/25 02:53:35;;;;;;;;;7.00;6.00;;;;;22.55;78.34;100533.84;5094601;27;45471;-62
2022/04/25 02:56:02;;;;;;;;;7.00;6.67;;;;;22.56;78.33;100540.97;5097057;27;45694;-63
2022/04/25 02:58:29;;;;;;;;;6.00;5.00;;;;;22.56;78.54;100534.72;5095204;27;46502;-63
2022/04/25 03:00:56;;;;;;;;;4.00;4.00;;;;;22.58;78.76;100540.91;5076677;27;45614;-62
2022/04/25 03:03:24;;;;;;;;;6.00;6.00;;;;;22.59;78.66;100540.88;5101194;27;45583;-62
2022/04/25 03:05:51;;;;;;;;;6.00;5.00;;;;;22.60;78.66;100548.00;5099947;27;45545;-63
2022/04/25 03:08:19;;;;;;;;;5.00;5.00;;;;;22.61;78.50;100541.66;5094828;27;46444;-63
2022/04/25 03:10:45;;;;;;;;;7.00;5.00;;;;;22.63;78.44;100544.28;5096737;27;45869;-63
2022/04/25 03:13:12;;;;;;;;;5.00;5.00;;;;;22.64;78.24;100544.22;5097280;27;45453;-62
2022/04/25 03:15:40;;;;;;;;;4.33;4.33;;;;;22.66;78.07;100544.16;5101716;27;45493;-62
2022/04/25 03:18:07;;;;;;;;;6.00;5.00;;;;;;;;5093446;27;45951;-62
2022/04/25 03:20:33;;;;;;;;;5.00;5.00;;;;;22.69;78.41;100546.69;5094820;27;45399;-62
2022/04/25 03:22:59;;;;;;;;;4.00;4.00;;;;;22.69;78.21;100552.06;5096557;27;45502;-62
2022/04/25 03:25:24;;;;;;;;;5.00;4.67;;;;;22.70;78.13;100551.16;5080867;27;45576;-62
2022/04/25 03:27:50;;;;;;;;;7.00;6.00;;;;;22.69;78.10;100544.00;5093976;27;46252;-63
2022/04/25 03:30:16;;;;;;;;;5.33;5.00;;;;;22.70;78.03;100549.34;5104217;27;45863;-62
2022/04/25 03:32:46;;;;;;;;;6.33;4.00;;;;;22.71;78.05;100553.78;5094009;27;45523;-63
2022/04/25 03:35:15;;;;;;;;;6.33;5.00;;;;;22.72;78.44;100551.97;5094325;27;45553;-63
2022/04/25 03:37:41;;;;;;;;;5.67;4.00;;;;;22.71;78.42;100544.84;5094398;27;46436;-63
2022/04/25 03:40:09;;;;;;;;;4.00;4.00;;;;;22.70;78.06;100548.47;5096081;27;45484;-62
2022/04/25 03:42:35;;;;;;;;;4.67;4.00;;;;;22.71;78.29;100559.16;5094321;27;45427;-62
2022/04/25 03:45:00;;;;;;;;;11.67;5.00;;;;;22.71;78.33;100552.91;5094853;27;45830;-63
2022/04/25 03:47:28;;;;;;;;;6.67;4.00;;;;;22.72;78.44;100560.91;5094984;27;54931;-63
2022/04/25 03:49:54;;;;;;;;;6.00;5.00;;;;;22.72;78.10;100562.72;5091596;27;45548;-63
2022/04/25 03:52:19;;;;;;;;;4.33;4.00;;;;;22.72;78.21;100557.34;5097204;27;45489;-63
2022/04/25 03:57:29;;;;;;;;;5.00;5.00;;;;;22.73;77.97;100561.78;5100497;27;46027;-62
2022/04/25 03:59:54;;;;;;;;;7.00;5.00;;;;;22.72;78.10;100563.59;5104661;27;45647;-62
2022/04/25 04:02:20;;;;;;;;;4.33;4.33;;;;;22.72;78.21;100563.59;5093699;27;46651;-63
2022/04/25 04:04:45;;;;;;;;;5.67;4.33;;;;;22.73;78.09;100561.78;5099817;27;45633;-62
2022/04/25 04:07:11;;;;;;;;;6.00;3.33;;;;;22.73;77.64;100561.78;5093835;27;47390;-63
2022/04/25 04:09:45;;;;;;;;;5.00;5.00;;;;;22.73;78.01;100565.34;5098905;27;45547;-63
2022/04/25 04:12:15;;;;;;;;;6.00;5.00;;;;;22.73;78.00;100568.03;5096432;27;47767;-63
2022/04/25 04:14:41;;;;;;;;;7.00;4.33;;;;;22.73;78.07;100569.84;5097099;27;45614;-63
2022/04/25 04:17:07;;;;;;;;;5.00;4.00;;;;;22.74;78.42;100572.50;5093933;27;46590;-63
2022/04/25 04:19:36;;;;;;;;;4.67;4.67;;;;;22.74;78.12;100576.97;5096417;27;45729;-63
2022/04/25 04:22:03;;;;;;;;;6.00;3.00;;;;;22.72;78.02;100579.75;5094025;27;45601;-63
2022/04/25 04:24:29;;;;;;;;;4.00;4.00;;;;;22.73;78.32;100581.50;5093883;27;45516;-62
2022/04/25 04:26:56;;;;;;;;;5.00;5.00;;;;;22.73;78.00;100577.94;5097537;27;45974;-63
2022/04/25 04:29:22;;;;;;;;;5.00;5.00;;;;;22.73;78.13;100586.00;5093471;27;45509;-63
2022/04/25 04:31:48;;;;;;;;;4.33;4.33;;;;;22.72;77.86;100587.81;5093353;27;45598;-63
2022/04/25 04:34:14;;;;;;;;;5.67;5.33;;;;;22.73;77.92;100592.25;5098383;27;45629;-62
2022/04/25 04:36:39;;;;;;;;;4.00;4.00;;;;;22.73;78.08;100594.06;5093513;27;47174;-63
2022/04/25 04:39:05;;;;;;;;;4.00;4.00;;;;;22.73;78.36;100597.66;5093974;27;45644;-63
2022/04/25 04:41:30;;;;;;;;;4.33;4.33;;;;;22.72;77.84;100606.66;5094060;27;45907;-61
2022/04/25 04:43:57;;;;;;;;;6.00;6.00;;;;;22.73;78.02;100608.41;5093547;27;45418;-62
2022/04/25 04:46:23;;;;;;;;;7.33;5.33;;;;;22.72;78.83;100613.88;5093727;27;46115;-62
2022/04/25 04:48:49;;;;;;;;;6.00;4.33;;;;;22.71;77.97;100614.81;5098907;27;45351;-63
2022/04/25 04:51:14;;;;;;;;;4.00;3.67;;;;;22.71;78.04;100620.19;5093424;27;45497;-62
2022/04/25 04:53:40;;;;;;;;;5.00;5.00;;;;;22.71;78.29;100621.06;5097030;27;45461;-62
2022/04/25 04:56:05;;;;;;;;;6.00;4.33;;;;;22.71;78.37;100629.16;5096584;27;45468;-62
2022/04/25 04:58:31;;;;;;;;;4.33;4.33;;;;;22.71;78.24;100628.28;5094671;27;45438;-62
2022/04/25 05:00:56;;;;;;;;;5.67;5.67;;;;;22.71;78.32;100633.66;5096538;27;46815;-62
2022/04/25 05:03:25;;;;;;;;;6.00;4.00;;;;;22.70;78.04;100632.78;5092868;27;45726;-63
2022/04/25 05:05:51;;;;;;;;;5.00;5.00;;;;;22.70;78.11;100637.28;5173573;22;46168;-62
2022/04/25 05:08:17;;;;;;;;;6.00;5.00;;;;;22.69;78.41;100635.53;5051991;28;45640;-62
2022/04/25 05:10:43;;;;;;;;;5.00;3.00;;;;;22.69;78.48;100646.28;5052369;28;45380;-62
2022/04/25 05:13:08;;;;;;;;;8.33;5.33;;;;;22.69;78.33;100646.28;5051247;28;45772;-63
2022/04/25 05:15:36;;;;;;;;;5.00;4.67;;;;;22.68;78.08;100650.78;5051544;28;47201;-62
2022/04/25 05:18:01;;;;;;;;;5.00;5.00;;;;;;;;5051909;28;45551;-62
2022/04/25 05:20:27;;;;;;;;;5.33;4.00;;;;;22.65;78.30;100653.63;5051775;28;45415;-63
2022/04/25 05:22:53;;;;;;;;;5.00;4.00;;;;;22.66;78.67;100659.88;5051161;28;45629;-64
2022/04/25 05:25:19;;;;;;;;;5.00;5.00;;;;;;;;5048103;28;47487;-62
2022/04/25 05:27:47;;;;;;;;;6.67;4.00;;;;;22.65;78.36;100669.78;5049997;28;45459;-61
2022/04/25 05:30:13;;;;;;;;;9.00;7.00;;;;;22.65;78.25;100672.47;5050046;28;45510;-61
2022/04/25 05:32:43;;;;;;;;;7.33;6.00;;;;;22.64;78.35;100672.56;5051496;28;45660;-62
2022/04/25 05:35:09;;;;;;;;;6.00;6.00;;;;;22.63;78.27;100674.34;5050423;28;46659;-61
2022/04/25 05:37:34;;;;;;;;;5.00;5.00;;;;;22.64;78.58;100676.13;5052017;28;45959;-62
2022/04/25 05:39:59;;;;;;;;;6.00;5.00;;;;;22.63;78.43;100666.25;5051221;28;48246;-62
2022/04/25 05:42:25;;;;;;;;;5.67;5.67;;;;;22.63;78.56;100679.72;5048134;28;45359;-61
2022/04/25 05:44:50;;;;;;;;;6.67;6.00;;;;;22.62;78.62;100685.16;5050220;28;56778;-62
2022/04/25 05:47:16;;;;;;;;;5.67;5.67;;;;;22.62;78.46;100677.97;5048796;28;45542;-63
2022/04/25 05:52:25;;;;;;;;;6.67;6.67;;;;;22.62;78.03;100696.81;5051291;28;45467;-63
2022/04/25 05:54:51;;;;;;;;;8.00;6.00;;;;;22.62;78.52;100694.13;5048977;28;52336;-62
2022/04/25 05:57:16;;;;;;;;;8.67;8.00;;;;;22.63;78.72;100697.69;5050799;28;45516;-62
2022/04/25 05:59:41;;;;;;;;;7.00;6.00;;;;;22.63;78.86;100703.06;5047024;28;45602;-63
2022/04/25 06:02:07;;;;;;;;;12.33;7.00;;;;;22.64;78.80;100700.34;5026635;28;45750;-62
2022/04/25 06:04:32;;;;;;;;;7.33;6.00;;;;;22.66;78.59;100711.03;5048190;28;46636;-63
2022/04/25 06:06:59;;;;;;;;;7.67;6.33;;;;;22.69;78.80;100709.09;5043951;28;45370;-63
2022/04/25 06:09:26;;;;;;;;;10.67;9.33;;;;;22.72;78.75;100724.22;5051001;28;45541;-63
2022/04/25 06:11:52;;;;;;;;;9.67;6.00;;;;;22.74;78.68;100716.97;5050442;28;45451;-62
2022/04/25 06:14:18;;;;;;;;;7.00;7.00;;;;;22.77;78.54;100724.03;5049456;28;46521;-63
2022/04/25 06:16:43;;;;;;;;;8.00;7.33;;;;;22.78;78.42;100723.97;5049271;28;45443;-63
2022/04/25 06:19:10;;;;;;;;;9.67;8.67;;;;;22.81;78.60;100723.00;5049967;28;45571;-63
2022/04/25 06:21:35;;;;;;;;;9.33;7.00;;;;;22.81;78.31;100726.56;5051216;28;45445;-63
2022/04/25 06:24:01;;;;;;;;;11.00;9.67;;;;;22.84;78.34;100725.53;5016475;28;47278;-63
2022/04/25 06:26:27;;;;;;;;;7.00;7.00;;;;;22.86;78.25;100729.94;5051708;28;45430;-62
2022/04/25 06:28:53;;;;;;;;;9.67;8.33;;;;;22.88;78.08;100721.81;5052962;28;45496;-62
2022/04/25 06:31:20;;;;;;;;;8.00;7.00;;;;;22.88;77.88;100730.78;5054206;28;45641;-63
2022/04/25 06:33:48;;;;;;;;;9.33;8.33;;;;;22.89;77.93;100735.22;5044680;28;47433;-62
2022/04/25 06:36:13;;;;;;;;;10.00;8.33;;;;;22.90;77.89;100736.94;5052686;28;45581;-64
2022/04/25 06:38:38;;;;;;;;;8.00;8.00;;;;;22.93;77.79;100738.66;5042026;28;45625;-63
2022/04/25 06:41:04;;;;;;;;;9.67;6.00;;;;;22.94;77.55;100740.41;5054274;28;45446;-62
2022/04/25 06:43:31;;;;;;;;;7.00;7.00;;;;;22.94;77.87;100735.91;5050835;28;47605;-63
2022/04/25 06:45:57;;;;;;;;;10.33;10.00;;;;;22.92;77.38;100739.59;5053726;28;45477;-63
2022/04/25 06:48:23;;;;;;;;;12.00;9.00;;;;;22.94;77.63;100743.97;5052513;28;45514;-63
2022/04/25 06:51:12;;;;;;;;;8.00;8.00;;;;;22.95;77.82;100747.53;5044188;28;46250;-62
2022/04/25 06:53:49;;;;;;;;;11.00;9.67;;;;;22.94;77.62;100741.28;5052087;28;45513;-63
2022/04/25 06:56:14;;;;;;;;;8.00;8.00;;;;;22.95;77.93;100744.84;5047191;28;50808;-62
2022/04/25 06:58:40;;;;;;;;;9.00;7.33;;;;;22.96;77.91;100747.50;5048927;28;45431;-62
2022/04/25 07:01:05;;;;;;;;;13.67;10.00;;;;;22.95;77.68;100747.53;5052846;28;47136;-62
2022/04/25 07:03:31;;;;;;;;;10.33;8.67;;;;;22.95;77.32;100747.53;5049311;28;46412;-62
2022/04/25 07:05:57;;;;;;;;;8.00;8.00;;;;;22.95;77.55;100744.84;5051314;28;46583;-62
2022/04/25 07:08:22;;;;;;;;;8.00;8.00;;;;;22.95;77.59;100747.53;5041788;28;45530;-62
2022/04/25 07:10:47;;;;;;;;;11.67;8.33;;;;;22.94;77.46;100762.81;5044380;28;45773;-62
2022/04/25 07:13:13;;;;;;;;;8.67;7.00;;;;;22.94;77.63;100757.44;5045222;28;47403;-62
2022/04/25 07:15:38;;;;;;;;;12.67;10.67;;;;;22.94;77.41;100759.25;5048370;28;45545;-62
2022/04/25 07:18:04;;;;;;;;;9.33;9.33;;;;;22.94;77.33;100765.50;5046861;28;45905;-62
2022/04/25 07:20:29;;;;;;;;;9.00;8.00;;;;;22.93;77.48;100766.47;5041250;28;46029;-62
2022/04/25 07:31:20;;;;;;;;;8.00;7.67;;;;;22.90;77.60;100761.19;5018048;28;47213;-61
2022/04/25 07:33:46;;;;;;;;;10.00;9.00;;;;;22.90;77.52;100774.66;5047683;28;45697;-62
2022/04/25 07:36:12;;;;;;;;;10.33;9.33;;;;;22.89;77.29;100767.50;5049888;28;45545;-62
2022/04/25 07:38:39;;;;;;;;;13.33;8.67;;;;;22.90;77.58;100771.97;5041061;28;45548;-62
2022/04/25 07:41:06;;;;;;;;;11.33;9.67;;;;;22.89;77.38;100767.50;5052097;28;45587;-62
2022/04/25 07:43:31;;;;;;;;;9.67;8.67;;;;;22.89;77.85;100767.50;5051342;28;46349;-62
2022/04/25 07:45:57;;;;;;;;;10.00;9.00;;;;;22.89;77.49;100759.44;5049478;28;45494;-62
2022/04/25 07:48:23;;;;;;;;;13.00;12.00;;;;;22.89;77.49;100772.03;5051343;28;47754;-62
2022/04/25 07:50:48;;;;;;;;;8.33;8.00;;;;;22.88;77.46;100771.16;5053713;28;45596;-62
2022/04/25 07:53:14;;;;;;;;;9.67;9.33;;;;;22.87;77.49;100777.44;5055509;28;47444;-62
2022/04/25 07:55:39;;;;;;;;;8.00;8.00;;;;;22.89;77.75;100780.09;5051281;28;49309;-62
2022/04/25 07:58:07;;;;;;;;;10.33;9.33;;;;;22.90;77.76;100779.16;5047721;28;48587;-62
2022/04/25 08:00:40;;;;;;;;;10.33;9.00;;;;;22.91;77.54;100783.63;5052373;28;45497;-63
2022/04/25 08:03:05;;;;;;;;;11.00;9.00;;;;;22.91;77.50;100786.31;5051824;28;46795;-63
2022/04/25 08:05:31;;;;;;;;;10.00;9.00;;;;;22.90;77.57;100790.81;5049504;28;45568;-63
2022/04/25 08:07:56;;;;;;;;;10.33;10.33;;;;;22.91;77.60;100783.63;5049778;28;45509;-62
2022/04/25 08:10:22;;;;;;;;;12.00;11.00;;;;;22.89;77.64;100786.38;5049751;28;45519;-62
2022/04/25 08:18:15;;;;;;;;;12.00;12.00;;;;;22.88;77.33;100792.69;5051448;28;45571;-62
2022/04/25 08:20:41;;;;;;;;;10.33;8.33;;;;;22.88;77.68;100797.22;5052018;28;46209;-60
2022/04/25 08:23:11;;;;;;;;;9.33;9.33;;;;;22.88;77.52;100794.50;5051638;28;45794;-63
2022/04/25 08:25:41;;;;;;;;;11.67;8.33;;;;;22.87;76.96;100804.38;5050822;28;45513;-60
2022/04/25 08:28:07;;;;;;;;;9.67;9.67;;;;;22.86;77.48;100804.44;5033621;28;45648;-61
2022/04/25 08:30:32;;;;;;;;;12.67;10.00;;;;;22.86;77.67;100810.72;5052711;28;46897;-61
2022/04/25 08:33:00;;;;;;;;;10.67;10.00;;;;;22.88;77.69;100810.66;5050423;28;47392;-61
2022/04/25 08:35:26;;;;;;;;;11.67;9.33;;;;;22.87;78.01;100816.97;5050182;28;45639;-61
2022/04/25 08:37:54;;;;;;;;;9.00;9.00;;;;;22.88;77.72;100816.94;5048994;28;45585;-61
2022/04/25 08:40:19;;;;;;;;;10.00;10.00;;;;;22.89;77.97;100818.69;5047951;28;45604;-61
2022/04/25 08:42:45;;;;;;;;;11.00;8.00;;;;;22.90;77.78;100819.56;5049199;28;46575;-61
2022/04/25 08:45:11;;;;;;;;;12.00;10.33;;;;;22.90;77.97;100822.25;5049843;28;45422;-61
2022/04/25 08:47:40;;;;;;;;;9.33;8.67;;;;;22.90;77.71;100824.94;5049331;28;45500;-62
2022/04/25 08:50:06;;;;;;;;;10.33;9.33;;;;;22.89;77.68;100828.56;5032247;28;45602;-61
2022/04/25 08:52:32;;;;;;;;;11.67;10.00;;;;;22.88;77.83;100830.38;5049765;28;45795;-61
2022/04/25 08:54:58;;;;;;;;;11.00;11.00;;;;;22.89;78.14;100832.13;5051279;28;45928;-60
2022/04/25 08:57:26;;;;;;;;;10.00;10.00;;;;;22.88;77.54;100835.78;5050320;28;45393;-61
2022/04/25 08:59:52;;;;;;;;;10.67;10.33;;;;;22.89;77.82;100840.22;5032688;28;45737;-60
2022/04/25 09:02:17;;;;;;;;;9.33;9.33;;;;;22.89;77.93;100837.53;5034155;28;47369;-60
2022/04/25 09:04:46;;;;;;;;;8.67;8.67;;;;;22.88;77.75;100837.59;5035177;28;45431;-61
2022/04/25 09:07:12;;;;;;;;;11.33;10.00;;;;;22.87;77.59;100836.69;5046929;28;45508;-62
2022/04/25 09:09:37;;;;;;;;;11.33;11.33;;;;;22.87;77.84;100844.75;5049353;28;45470;-61
2022/04/25 09:12:09;;;;;;;;;11.00;10.00;;;;;22.87;78.10;100843.91;5050291;28;47328;-61
2022/04/25 09:14:40;;;;;;;;;10.67;10.67;;;;;22.83;78.27;100837.75;5050587;28;45763;-62
2022/04/25 09:17:06;;;;;;;;;11.00;11.00;;;;;22.86;78.01;100853.78;5047633;28;45649;-61
2022/04/25 09:19:33;;;;;;;;;9.33;9.33;;;;;22.86;77.85;100845.72;5049017;28;45574;-61
2022/04/25 09:21:58;;;;;;;;;10.00;10.00;;;;;22.86;77.91;100843.03;5050265;28;47360;-61
2022/04/25 09:24:26;;;;;;;;;11.00;11.00;;;;;22.87;77.85;100851.97;5049939;28;45642;-61
2022/04/25 09:27:24;;;;;;;;;12.67;9.00;;;;;22.87;77.76;100849.28;5049275;28;45392;-61
2022/04/25 09:29:49;;;;;;;;;9.67;9.67;;;;;22.86;77.95;100848.41;5016333;28;46014;-61
2022/04/25 09:32:18;;;;;;;;;11.00;10.00;;;;;22.87;78.18;100844.75;5049716;28;46152;-61
2022/04/25 09:35:04;;;;;;;;;12.33;9.67;;;;;22.86;77.94;100843.03;5049229;28;45463;-61
2022/04/25 09:37:42;;;;;;;;;12.33;9.33;;;;;22.85;77.82;100846.66;5049666;28;45562;-61
2022/04/25 09:40:08;;;;;;;;;10.00;10.00;;;;;22.85;77.97;100854.72;5048318;28;46020;-61
2022/04/25 09:42:33;;;;;;;;;9.33;9.33;;;;;22.87;78.06;100854.66;5047083;28;46720;-61
2022/04/25 09:45:00;;;;;;;;;9.33;9.00;;;;;22.84;77.90;100858.34;5046552;28;50560;-61
2022/04/25 09:47:34;;;;;;;;;11.00;11.00;;;;;22.85;77.79;100861.91;5048607;28;45609;-62
2022/04/25 09:50:08;;;;;;;;;10.00;10.00;;;;;22.83;77.97;100853.91;5048202;28;45563;-62
2022/04/25 09:52:54;;;;;;;;;14.00;11.00;;;;;22.84;77.98;100857.47;5048518;28;47608;-62
2022/04/25 09:55:21;;;;;;;;;11.00;10.00;;;;;22.83;78.20;100861.09;5046730;28;45556;-62
2022/04/25 09:57:49;;;;;;;;;10.00;9.00;;;;;22.85;78.13;100853.81;5050909;28;45411;-61
2022/04/25 10:00:29;;;;;;;;;11.00;11.00;;;;;22.84;78.18;100861.03;5049248;28;45526;-62
2022/04/25 10:02:54;;;;;;;;;8.67;8.67;;;;;22.83;78.38;100859.28;5049210;28;48527;-61
2022/04/25 10:05:20;;;;;;;;;10.33;10.00;;;;;22.84;78.21;100857.47;5054549;28;45537;-61
2022/04/25 10:07:45;;;;;;;;;10.00;10.00;;;;;22.83;78.29;100858.41;5055070;28;46084;-62
2022/04/25 10:10:12;;;;;;;;;11.67;11.00;;;;;22.84;78.29;100857.47;5054636;28;45534;-61
2022/04/25 10:12:38;;;;;;;;;10.67;10.67;;;;;22.84;78.40;100861.03;5053505;28;47826;-60
2022/04/25 10:15:06;;;;;;;;;13.00;11.00;;;;;22.84;78.17;100860.16;5035916;28;45454;-61
2022/04/25 10:17:34;;;;;;;;;10.33;10.00;;;;;22.85;78.41;100865.50;5053335;28;45570;-60
2022/04/25 10:20:00;;;;;;;;;10.00;10.00;;;;;22.85;78.15;100856.50;5055619;28;45940;-62
2022/04/25 10:22:26;;;;;;;;;12.00;9.33;;;;;22.85;78.33;100860.13;5053982;28;47522;-61
2022/04/25 10:24:51;;;;;;;;;8.00;8.00;;;;;22.86;78.25;100858.28;5054769;28;45453;-60
2022/04/25 10:27:18;;;;;;;;;9.33;9.33;;;;;22.85;78.48;100865.50;5054176;28;45564;-61
2022/04/25 10:29:49;;;;;;;;;9.33;9.33;;;;;22.86;78.24;100856.47;5055011;28;45490;-62
2022/04/25 10:32:21;;;;;;;;;9.00;9.00;;;;;22.86;78.36;100861.88;5049873;28;47738;-61
2022/04/25 10:34:59;;;;;;;;;10.00;10.00;;;;;22.87;78.25;100862.75;5030116;28;45541;-61
2022/04/25 10:37:34;;;;;;;;;8.00;8.00;;;;;22.86;78.48;100869.94;5053928;28;45569;-61
2022/04/25 10:40:02;;;;;;;;;11.33;10.00;;;;;22.86;78.21;100858.28;5050856;28;45416;-61
2022/04/25 10:45:11;;;;;;;;;10.00;9.00;;;;;22.86;78.26;100856.47;5051774;28;45912;-60
2022/04/25 10:47:53;;;;;;;;;7.67;7.00;;;;;22.88;78.65;100864.53;5052307;28;45422;-61
2022/04/25 10:50:18;;;;;;;;;8.00;7.67;;;;;22.88;78.17;100859.13;5052947;28;47388;-61
2022/04/25 10:55:14;;;;;;;;;9.00;9.00;;;;;22.89;77.90;100863.56;5053067;28;45580;-61
2022/04/25 10:58:02;;;;;;;;;8.33;8.00;;;;;22.88;78.30;100854.63;5052063;28;45632;-61
2022/04/25 11:00:48;;;;;;;;;10.00;9.67;;;;;22.90;78.29;100859.94;5051216;28;45435;-61
2022/04/25 11:03:28;;;;;;;;;7.67;7.67;;;;;22.89;78.15;100859.06;5050587;28;46268;-60
2022/04/25 11:05:57;;;;;;;;;8.67;8.67;;;;;22.89;77.89;100859.06;5050495;28;47214;-61
2022/04/25 11:08:28;;;;;;;;;7.00;7.00;;;;;22.89;78.06;100856.38;5047112;28;45474;-61
2022/04/25 11:10:56;;;;;;;;;11.00;9.00;;;;;22.89;77.76;100853.69;5054573;28;45441;-61
2022/04/25 11:13:25;;;;;;;;;8.67;7.33;;;;;22.89;78.04;100856.38;5051563;28;46789;-61
2022/04/25 11:15:52;;;;;;;;;7.33;7.33;;;;;22.88;78.15;100846.53;5053737;28;45540;-61
2022/04/25 11:18:35;;;;;;;;;10.00;9.00;;;;;22.89;78.14;100856.38;5046618;28;45616;-61
2022/04/25 11:21:07;;;;;;;;;9.33;8.33;;;;;22.90;78.12;100863.50;5052898;28;45624;-61
2022/04/25 11:23:47;;;;;;;;;7.33;7.33;;;;;22.90;78.03;100863.50;5053043;28;47146;-61
2022/04/25 11:26:24;;;;;;;;;8.33;8.00;;;;;22.91;78.29;100861.72;5051671;28;45529;-61
2022/04/25 11:31:22;;;;;;;;;7.33;7.00;;;;;22.92;78.07;100864.34;5051474;28;45545;-61
2022/04/25 11:33:50;;;;;;;;;8.00;7.00;;;;;22.91;78.04;100853.66;5052621;28;47426;-62
2022/04/25 11:36:16;;;;;;;;;9.67;8.67;;;;;22.92;78.03;100852.69;5033408;28;45450;-62
2022/04/25 11:41:28;;;;;;;;;9.33;7.00;;;;;22.92;77.73;100858.97;5048939;28;45426;-61
2022/04/25 11:43:54;;;;;;;;;8.67;8.67;;;;;22.92;77.92;100866.16;5051774;28;47514;-61
2022/04/25 11:46:19;;;;;;;;;8.33;7.00;;;;;22.93;77.62;100859.84;5048453;28;45517;-62
2022/04/25 11:48:51;;;;;;;;;8.00;8.00;;;;;22.92;77.48;100858.97;5051185;28;45861;-62
2022/04/25 11:51:36;;;;;;;;;10.00;8.33;;;;;22.93;77.54;100860.72;5032533;28;45596;-61
2022/04/25 11:54:06;;;;;;;;;9.00;7.67;;;;;22.93;77.63;100849.94;5050203;28;47435;-61
2022/04/25 11:56:33;;;;;;;;;7.00;7.00;;;;;22.94;78.01;100857.06;5051062;28;45430;-61
2022/04/25 11:59:00;;;;;;;;;6.00;6.00;;;;;22.95;77.66;100861.50;5051591;28;45473;-61